Time;durP1;ratioP1;P1;durP2;ratioP2;P2;SDS_P1;SDS_P2;PMS_P1;PMS_P2;Temp;Humidity;BMP_temperature;BMP_pressure;BME280_temperature;BME280_humidity;BME280_pressure;Samples;Min_cycle;Max_cycle;Signal;HPM_P1;HPM_P2
2023/05/24 00:01:06;;;;;;;;;;;18.10;62.20;;;;;;5053576;27;87536;-41
2023/05/24 00:03:33;;;;;;;;;;;18.10;62.30;;;;;;5051230;27;89396;-41
2023/05/24 00:05:59;;;;;;;;;;;18.00;62.20;;;;;;5053965;27;87186;-41
2023/05/24 00:08:25;;;;;;;;;;;18.00;62.20;;;;;;5050050;27;87050;-41
2023/05/24 00:10:50;;;;;;;;;;;18.00;62.00;;;;;;5051037;27;88367;-41
2023/05/24 00:13:16;;;;;;;;;;;18.00;62.10;;;;;;5053509;27;88078;-41
2023/05/24 00:15:42;;;;;;;;;;;18.00;62.20;;;;;;5050631;27;89734;-41
2023/05/24 00:18:07;;;;;;;;;;;18.00;62.20;;;;;;5054126;27;87238;-41
2023/05/24 00:20:33;;;;;;;;;;;18.00;62.30;;;;;;5053586;27;87113;-41
2023/05/24 00:22:58;;;;;;;;;;;17.90;62.00;;;;;;5049282;27;88023;-41
2023/05/24 00:25:24;;;;;;;;;;;17.90;62.20;;;;;;5053839;27;87078;-41
2023/05/24 00:27:49;;;;;;;;;;;17.90;62.10;;;;;;5051046;27;87337;-41
2023/05/24 00:30:15;;;;;;;;;;;17.90;62.10;;;;;;5053496;27;87049;-41
2023/05/24 00:32:40;;;;;;;;;;;17.90;62.10;;;;;;5051724;27;87114;-41
2023/05/24 00:35:06;;;;;;;;;;;17.80;62.20;;;;;;5052871;27;87411;-41
2023/05/24 00:37:31;;;;;;;;;;;17.80;62.30;;;;;;5047981;27;89258;-41
2023/05/24 00:39:57;;;;;;;;;;;17.80;62.30;;;;;;5052378;27;87248;-41
2023/05/24 00:42:23;;;;;;;;;;;17.80;62.20;;;;;;5053999;27;88105;-41
2023/05/24 00:44:48;;;;;;;;;;;17.80;62.10;;;;;;5052614;27;87127;-41
2023/05/24 00:47:14;;;;;;;;;;;17.80;62.20;;;;;;5051021;27;88814;-42
2023/05/24 00:49:40;;;;;;;;;;;17.80;62.20;;;;;;5052553;27;88601;-41
2023/05/24 00:52:07;;;;;;;;;;;17.70;62.20;;;;;;5049883;27;87022;-41
2023/05/24 00:54:33;;;;;;;;;;;17.70;62.20;;;;;;5050501;27;89011;-41
2023/05/24 00:56:59;;;;;;;;;;;17.70;62.20;;;;;;5053114;27;88064;-41
2023/05/24 00:59:25;;;;;;;;;;;17.70;62.20;;;;;;5050191;27;87103;-41
2023/05/24 01:01:51;;;;;;;;;;;17.70;62.20;;;;;;5055377;27;89044;-41
2023/05/24 01:04:19;;;;;;;;;;;17.70;62.20;;;;;;5055776;27;89458;-41
2023/05/24 01:07:06;;;;;;;;;;;17.70;62.10;;;;;;5049837;27;87573;-41
2023/05/24 01:09:38;;;;;;;;;;;17.60;62.20;;;;;;5054382;27;89319;-41
2023/05/24 01:12:03;;;;;;;;;;;17.60;62.30;;;;;;5056880;27;87172;-42
2023/05/24 01:14:29;;;;;;;;;;;17.60;62.10;;;;;;5053988;27;87391;-42
2023/05/24 01:17:17;;;;;;;;;;;17.60;62.20;;;;;;5056217;27;87951;-41
2023/05/24 01:19:45;;;;;;;;;;;17.60;62.10;;;;;;5025585;27;86489;-41
2023/05/24 01:22:11;;;;;;;;;;;17.60;62.20;;;;;;5055344;27;87076;-41
2023/05/24 01:24:37;;;;;;;;;;;17.50;62.20;;;;;;5053264;27;88179;-41
2023/05/24 01:27:06;;;;;;;;;;;17.50;62.00;;;;;;5053799;27;88743;-41
2023/05/24 01:29:32;;;;;;;;;;;17.50;62.10;;;;;;5054630;27;90135;-41
2023/05/24 01:31:58;;;;;;;;;;;17.50;62.00;;;;;;5054979;27;87154;-41
2023/05/24 01:34:27;;;;;;;;;;;17.50;62.20;;;;;;5055676;27;87258;-41
2023/05/24 01:36:52;;;;;;;;;;;17.50;62.20;;;;;;5054246;27;88100;-41
2023/05/24 01:39:19;;;;;;;;;;;17.40;62.00;;;;;;5052000;27;87208;-41
2023/05/24 01:41:45;;;;;;;;;;;17.40;62.30;;;;;;5055640;27;87137;-41
2023/05/24 01:44:29;;;;;;;;;;;17.40;62.10;;;;;;5054320;27;87287;-42
2023/05/24 01:47:10;;;;;;;;;;;17.40;62.00;;;;;;5056408;27;87202;-41
2023/05/24 01:49:39;;;;;;;;;;;17.40;62.10;;;;;;5051350;27;88191;-41
2023/05/24 01:52:11;;;;;;;;;;;17.40;62.10;;;;;;5054348;27;88072;-41
2023/05/24 01:54:37;;;;;;;;;;;17.40;62.10;;;;;;5055605;27;88116;-41
2023/05/24 01:57:05;;;;;;;;;;;17.40;62.10;;;;;;5054363;27;88326;-41
2023/05/24 01:59:32;;;;;;;;;;;17.30;62.00;;;;;;5054573;27;87612;-42
2023/05/24 02:01:57;;;;;;;;;;;17.30;62.10;;;;;;5054656;27;87485;-41
2023/05/24 02:04:23;;;;;;;;;;;17.30;62.00;;;;;;5054186;27;88665;-41
2023/05/24 02:06:49;;;;;;;;;;;17.30;62.00;;;;;;5055132;27;87086;-41
2023/05/24 02:09:14;;;;;;;;;;;17.30;62.10;;;;;;5054915;27;88018;-41
2023/05/24 02:11:40;;;;;;;;;;;17.30;62.10;;;;;;5053017;27;87116;-41
2023/05/24 02:14:05;;;;;;;;;;;17.20;62.10;;;;;;5055131;27;87349;-41
2023/05/24 02:16:32;;;;;;;;;;;17.20;62.20;;;;;;5051923;27;89076;-41
2023/05/24 02:18:57;;;;;;;;;;;17.20;62.00;;;;;;5055933;27;87122;-42
2023/05/24 02:21:23;;;;;;;;;;;17.20;62.00;;;;;;5052292;27;88021;-41
2023/05/24 02:23:48;;;;;;;;;;;17.20;62.10;;;;;;5051028;27;88067;-41
2023/05/24 02:26:16;;;;;;;;;;;17.10;62.10;;;;;;5048507;27;87447;-41
2023/05/24 02:28:42;;;;;;;;;;;17.10;62.00;;;;;;5048209;27;88975;-41
2023/05/24 02:31:07;;;;;;;;;;;17.10;62.00;;;;;;5058548;27;87231;-41
2023/05/24 02:33:34;;;;;;;;;;;17.10;62.10;;;;;;5034798;28;90533;-41
2023/05/24 02:36:00;;;;;;;;;;;17.10;62.00;;;;;;5055103;27;89229;-41
2023/05/24 02:38:25;;;;;;;;;;;17.00;62.10;;;;;;5052793;27;87070;-41
2023/05/24 02:40:51;;;;;;;;;;;17.00;62.00;;;;;;5051019;27;88114;-42
2023/05/24 02:43:17;;;;;;;;;;;17.00;62.10;;;;;;5054427;27;87619;-41
2023/05/24 02:45:43;;;;;;;;;;;17.00;62.00;;;;;;5053274;27;87395;-41
2023/05/24 02:48:08;;;;;;;;;;;17.00;62.10;;;;;;5054131;27;87305;-41
2023/05/24 02:50:35;;;;;;;;;;;17.00;62.10;;;;;;5053665;27;87350;-41
2023/05/24 02:53:01;;;;;;;;;;;17.00;62.10;;;;;;5056282;27;87057;-41
2023/05/24 02:55:27;;;;;;;;;;;16.90;62.00;;;;;;5050875;27;87964;-41
2023/05/24 02:57:53;;;;;;;;;;;16.90;62.10;;;;;;5054492;27;86400;-41
2023/05/24 03:00:19;;;;;;;;;;;16.90;62.40;;;;;;5053200;27;87319;-41
2023/05/24 03:02:46;;;;;;;;;;;16.90;62.20;;;;;;5054195;27;88150;-41
2023/05/24 03:05:12;;;;;;;;;;;16.90;62.20;;;;;;5052727;27;88124;-42
2023/05/24 03:07:37;;;;;;;;;;;16.90;62.30;;;;;;5047496;27;88409;-42
2023/05/24 03:10:03;;;;;;;;;;;16.80;62.10;;;;;;5049853;27;88212;-41
2023/05/24 03:12:29;;;;;;;;;;;16.80;62.00;;;;;;5050258;27;87063;-41
2023/05/24 03:14:54;;;;;;;;;;;16.80;62.00;;;;;;5054994;27;87392;-41
2023/05/24 03:17:20;;;;;;;;;;;16.80;62.00;;;;;;5051465;27;87203;-41
2023/05/24 03:19:46;;;;;;;;;;;16.70;61.90;;;;;;5046751;27;87853;-41
2023/05/24 03:22:11;;;;;;;;;;;16.70;62.10;;;;;;5041829;27;87326;-41
2023/05/24 03:24:37;;;;;;;;;;;16.70;62.00;;;;;;5050850;27;87171;-41
2023/05/24 03:27:03;;;;;;;;;;;16.70;61.90;;;;;;5053726;27;87231;-41
2023/05/24 03:29:28;;;;;;;;;;;16.70;62.20;;;;;;5045205;27;90639;-41
2023/05/24 03:31:54;;;;;;;;;;;16.70;62.10;;;;;;5045467;27;87241;-41
2023/05/24 03:34:19;;;;;;;;;;;16.60;61.90;;;;;;5056527;27;87153;-41
2023/05/24 03:36:45;;;;;;;;;;;16.70;62.20;;;;;;5049325;27;87025;-41
2023/05/24 03:39:11;;;;;;;;;;;16.70;62.00;;;;;;5042420;27;87653;-41
2023/05/24 03:41:36;;;;;;;;;;;16.70;62.10;;;;;;5046442;27;87966;-41
2023/05/24 03:44:02;;;;;;;;;;;16.60;62.10;;;;;;5053298;27;87148;-41
2023/05/24 03:46:27;;;;;;;;;;;16.60;62.20;;;;;;5044648;27;87282;-41
2023/05/24 03:48:53;;;;;;;;;;;16.60;62.10;;;;;;5038788;27;87223;-41
2023/05/24 03:51:19;;;;;;;;;;;16.60;61.90;;;;;;5043890;27;87103;-41
2023/05/24 03:53:44;;;;;;;;;;;16.60;62.10;;;;;;5050415;27;88972;-41
2023/05/24 03:56:09;;;;;;;;;;;16.50;61.90;;;;;;5047348;27;88928;-41
2023/05/24 03:58:36;;;;;;;;;;;16.50;62.20;;;;;;5048488;27;87504;-41
2023/05/24 04:01:02;;;;;;;;;;;16.50;62.00;;;;;;5040327;27;88101;-41
2023/05/24 04:03:27;;;;;;;;;;;16.50;62.10;;;;;;5050699;27;87093;-41
2023/05/24 04:05:53;;;;;;;;;;;16.50;62.00;;;;;;5049966;27;88197;-41
2023/05/24 04:08:19;;;;;;;;;;;16.50;62.10;;;;;;5040750;27;89596;-41
2023/05/24 04:10:44;;;;;;;;;;;16.50;62.00;;;;;;5045192;27;86499;-41
2023/05/24 04:13:10;;;;;;;;;;;16.50;62.00;;;;;;5053991;27;87052;-41
2023/05/24 04:15:36;;;;;;;;;;;16.50;62.00;;;;;;5044617;27;87884;-41
2023/05/24 04:18:02;;;;;;;;;;;16.50;62.10;;;;;;5038668;27;88287;-41
2023/05/24 04:20:28;;;;;;;;;;;16.50;62.00;;;;;;5048179;27;87981;-41
2023/05/24 04:22:54;;;;;;;;;;;16.50;61.90;;;;;;5052923;27;87032;-41
2023/05/24 04:25:20;;;;;;;;;;;16.40;62.10;;;;;;5044705;27;87541;-41
2023/05/24 04:27:47;;;;;;;;;;;16.40;62.10;;;;;;5042572;27;87971;-41
2023/05/24 04:30:14;;;;;;;;;;;16.40;62.10;;;;;;5047449;27;87579;-41
2023/05/24 04:32:40;;;;;;;;;;;16.40;62.20;;;;;;5052299;27;88892;-41
2023/05/24 04:35:06;;;;;;;;;;;16.40;62.10;;;;;;5043701;27;87512;-41
2023/05/24 04:37:32;;;;;;;;;;;16.40;62.10;;;;;;5051946;27;87925;-43
2023/05/24 04:39:58;;;;;;;;;;;16.40;62.00;;;;;;5053174;27;87273;-41
2023/05/24 04:42:23;;;;;;;;;;;16.40;62.20;;;;;;5055652;27;87993;-41
2023/05/24 04:44:49;;;;;;;;;;;16.30;62.10;;;;;;5047037;27;88298;-41
2023/05/24 04:47:15;;;;;;;;;;;16.40;62.30;;;;;;5044373;27;88134;-42
2023/05/24 04:49:40;;;;;;;;;;;16.30;62.10;;;;;;5051110;27;87238;-41
2023/05/24 04:52:06;;;;;;;;;;;16.30;62.10;;;;;;5053723;27;87402;-42
2023/05/24 04:54:32;;;;;;;;;;;16.30;62.10;;;;;;5049325;27;88114;-41
2023/05/24 04:56:57;;;;;;;;;;;16.30;62.20;;;;;;5037490;27;87170;-42
2023/05/24 04:59:23;;;;;;;;;;;16.30;62.30;;;;;;5053581;27;87375;-41
2023/05/24 05:01:48;;;;;;;;;;;16.40;62.30;;;;;;5058096;27;87811;-42
2023/05/24 05:04:14;;;;;;;;;;;16.30;62.30;;;;;;5047407;27;89159;-41
2023/05/24 05:06:42;;;;;;;;;;;16.40;62.90;;;;;;5048862;27;90258;-41
2023/05/24 05:09:13;;;;;;;;;;;16.30;62.20;;;;;;5053325;27;87725;-42
2023/05/24 05:11:39;;;;;;;;;;;16.30;62.40;;;;;;5052395;27;88927;-42
2023/05/24 05:14:05;;;;;;;;;;;16.30;62.40;;;;;;5048899;27;87771;-41
2023/05/24 05:16:31;;;;;;;;;;;16.30;62.40;;;;;;5050342;27;88824;-42
2023/05/24 05:18:57;;;;;;;;;;;16.30;62.50;;;;;;5055496;27;88876;-41
2023/05/24 05:21:22;;;;;;;;;;;16.30;62.50;;;;;;5051388;27;86984;-42
2023/05/24 05:23:48;;;;;;;;;;;16.30;62.50;;;;;;5055943;27;86462;-41
2023/05/24 05:26:13;;;;;;;;;;;16.30;62.50;;;;;;5044941;27;88170;-41
2023/05/24 05:28:39;;;;;;;;;;;16.30;62.50;;;;;;5055270;27;87073;-42
2023/05/24 05:31:04;;;;;;;;;;;16.30;62.60;;;;;;5049667;27;87997;-41
2023/05/24 05:33:31;;;;;;;;;;;16.30;62.60;;;;;;5040296;27;87426;-41
2023/05/24 05:35:56;;;;;;;;;;;16.30;62.70;;;;;;5048538;27;87806;-41
2023/05/24 05:38:22;;;;;;;;;;;16.30;62.70;;;;;;5055899;27;87444;-41
2023/05/24 05:40:47;;;;;;;;;;;16.30;62.70;;;;;;5052951;27;87799;-41
2023/05/24 05:43:13;;;;;;;;;;;16.30;62.70;;;;;;5056775;27;87107;-42
2023/05/24 05:45:39;;;;;;;;;;;16.30;62.70;;;;;;5056108;27;88235;-41
2023/05/24 05:48:04;;;;;;;;;;;16.30;62.80;;;;;;5053439;27;86275;-42
2023/05/24 05:50:30;;;;;;;;;;;16.30;62.90;;;;;;5056956;27;87830;-41
2023/05/24 05:52:56;;;;;;;;;;;16.30;63.00;;;;;;5047954;27;88457;-42
2023/05/24 05:55:22;;;;;;;;;;;16.30;62.90;;;;;;5052574;27;88061;-42
2023/05/24 05:57:48;;;;;;;;;;;16.30;63.20;;;;;;5034454;28;90075;-42
2023/05/24 06:00:14;;;;;;;;;;;16.20;63.30;;;;;;5055456;27;87927;-42
2023/05/24 06:02:39;;;;;;;;;;;16.20;63.30;;;;;;5053345;27;86984;-41
2023/05/24 06:05:05;;;;;;;;;;;16.20;63.40;;;;;;5058242;27;86982;-41
2023/05/24 06:07:30;;;;;;;;;;;16.20;63.40;;;;;;5053914;27;86939;-41
2023/05/24 06:09:56;;;;;;;;;;;16.30;63.30;;;;;;5054983;27;87477;-41
2023/05/24 06:12:21;;;;;;;;;;;16.30;63.20;;;;;;5052840;27;87309;-41
2023/05/24 06:14:49;;;;;;;;;;;16.30;63.30;;;;;;5054233;27;87170;-41
2023/05/24 06:17:15;;;;;;;;;;;16.30;63.10;;;;;;5054193;27;88955;-42
2023/05/24 06:19:42;;;;;;;;;;;16.30;63.20;;;;;;5052833;27;90216;-42
2023/05/24 06:22:08;;;;;;;;;;;16.30;63.30;;;;;;5054504;27;87088;-41
2023/05/24 06:24:33;;;;;;;;;;;16.30;63.30;;;;;;5053418;27;88849;-41
2023/05/24 06:26:59;;;;;;;;;;;16.30;63.40;;;;;;5054786;27;87783;-41
2023/05/24 06:29:24;;;;;;;;;;;16.30;63.20;;;;;;5055255;27;87440;-41
2023/05/24 06:31:50;;;;;;;;;;;16.40;63.30;;;;;;5052614;27;88237;-42
2023/05/24 06:34:16;;;;;;;;;;;16.40;63.30;;;;;;5055487;27;86865;-41
2023/05/24 06:36:42;;;;;;;;;;;16.30;63.30;;;;;;5053037;27;87442;-42
2023/05/24 06:39:09;;;;;;;;;;;16.30;63.50;;;;;;5055229;27;87796;-41
2023/05/24 06:41:35;;;;;;;;;;;16.40;63.40;;;;;;5052129;27;87102;-41
2023/05/24 06:44:00;;;;;;;;;;;16.40;63.40;;;;;;5050930;27;88009;-41
2023/05/24 06:46:26;;;;;;;;;;;16.40;63.40;;;;;;5047754;27;88162;-41
2023/05/24 06:48:51;;;;;;;;;;;16.40;63.40;;;;;;5058528;27;87179;-41
2023/05/24 06:51:17;;;;;;;;;;;16.40;63.40;;;;;;5052362;27;88011;-41
2023/05/24 06:53:43;;;;;;;;;;;16.40;63.50;;;;;;5036200;27;87098;-42
2023/05/24 06:56:09;;;;;;;;;;;16.40;63.50;;;;;;5052432;27;87329;-41
2023/05/24 06:58:35;;;;;;;;;;;16.40;63.40;;;;;;5050916;27;87586;-41
2023/05/24 07:01:01;;;;;;;;;;;16.40;64.10;;;;;;5054608;27;86432;-41
2023/05/24 07:03:27;;;;;;;;;;;16.40;63.50;;;;;;5053096;27;86972;-41
2023/05/24 07:05:52;;;;;;;;;;;16.40;63.50;;;;;;5053208;27;88622;-41
2023/05/24 07:08:18;;;;;;;;;;;16.40;63.50;;;;;;5053156;27;88100;-41
2023/05/24 07:10:43;;;;;;;;;;;16.40;63.50;;;;;;5055894;27;88338;-41
2023/05/24 07:13:12;;;;;;;;;;;16.40;63.50;;;;;;5052191;27;87208;-41
2023/05/24 07:15:40;;;;;;;;;;;16.40;63.50;;;;;;5052968;27;88841;-41
2023/05/24 07:18:06;;;;;;;;;;;16.50;63.50;;;;;;5053231;27;87382;-41
2023/05/24 07:20:31;;;;;;;;;;;16.40;63.60;;;;;;5052578;27;87118;-41
2023/05/24 07:22:57;;;;;;;;;;;16.40;63.70;;;;;;5054244;27;87468;-41
2023/05/24 07:25:23;;;;;;;;;;;16.40;63.60;;;;;;5052149;27;88964;-41
2023/05/24 07:27:49;;;;;;;;;;;16.40;63.60;;;;;;5050770;27;87163;-41
2023/05/24 07:30:15;;;;;;;;;;;16.40;63.60;;;;;;5057168;27;87328;-41
2023/05/24 07:32:40;;;;;;;;;;;16.40;63.70;;;;;;5050972;27;87815;-41
2023/05/24 07:35:06;;;;;;;;;;;16.40;63.70;;;;;;5054996;27;88446;-41
2023/05/24 07:37:32;;;;;;;;;;;16.40;63.60;;;;;;5050848;27;88095;-41
2023/05/24 07:39:57;;;;;;;;;;;16.40;63.70;;;;;;5054998;27;87117;-41
2023/05/24 07:42:23;;;;;;;;;;;16.40;63.80;;;;;;5051062;27;87527;-41
2023/05/24 07:44:48;;;;;;;;;;;16.40;63.80;;;;;;5051220;27;87996;-41
2023/05/24 07:47:14;;;;;;;;;;;16.40;64.00;;;;;;5054151;27;87180;-41
2023/05/24 07:49:40;;;;;;;;;;;16.40;63.80;;;;;;5052180;27;88692;-41
2023/05/24 07:52:06;;;;;;;;;;;16.40;63.90;;;;;;5056510;27;87827;-41
2023/05/24 07:54:31;;;;;;;;;;;16.40;63.90;;;;;;5051820;27;88932;-41
2023/05/24 07:56:57;;;;;;;;;;;16.50;63.90;;;;;;5050545;27;88724;-41
2023/05/24 07:59:22;;;;;;;;;;;16.40;63.80;;;;;;5050796;27;87606;-41
2023/05/24 08:01:48;;;;;;;;;;;16.50;63.90;;;;;;5052910;27;89759;-41
2023/05/24 08:04:15;;;;;;;;;;;16.50;63.90;;;;;;5052078;27;88180;-41
2023/05/24 08:06:40;;;;;;;;;;;16.50;63.90;;;;;;5053146;27;87072;-41
2023/05/24 08:09:07;;;;;;;;;;;16.40;64.00;;;;;;5052059;27;87378;-41
2023/05/24 08:11:33;;;;;;;;;;;16.40;64.00;;;;;;5051917;27;88048;-41
2023/05/24 08:13:58;;;;;;;;;;;16.40;64.00;;;;;;5053858;27;86495;-41
2023/05/24 08:16:24;;;;;;;;;;;16.50;64.00;;;;;;5051101;27;88660;-41
2023/05/24 08:18:49;;;;;;;;;;;16.50;64.60;;;;;;5054177;27;87139;-41
2023/05/24 08:21:15;;;;;;;;;;;16.50;64.00;;;;;;5049991;27;88918;-41
2023/05/24 08:23:40;;;;;;;;;;;16.50;64.00;;;;;;5053859;27;89358;-41
2023/05/24 08:26:06;;;;;;;;;;;16.50;64.10;;;;;;5046290;27;87288;-41
2023/05/24 08:28:32;;;;;;;;;;;16.50;64.00;;;;;;5050044;27;87664;-41
2023/05/24 08:30:58;;;;;;;;;;;16.60;63.90;;;;;;5053236;27;89394;-41
2023/05/24 08:33:23;;;;;;;;;;;16.60;64.00;;;;;;5050938;27;87180;-41
2023/05/24 08:35:50;;;;;;;;;;;16.60;64.20;;;;;;5055705;27;88840;-41
2023/05/24 08:38:15;;;;;;;;;;;16.60;64.40;;;;;;5051887;27;86931;-41
2023/05/24 08:40:41;;;;;;;;;;;16.60;64.40;;;;;;5052792;27;87291;-41
2023/05/24 08:43:10;;;;;;;;;;;16.60;64.50;;;;;;5048118;27;87771;-41
2023/05/24 08:45:37;;;;;;;;;;;16.70;62.40;;;;;;5050651;27;87944;-41
2023/05/24 08:48:03;;;;;;;;;;;17.10;61.40;;;;;;5052580;27;88284;-46
2023/05/24 08:50:29;;;;;;;;;;;17.30;58.30;;;;;;5051275;27;88133;-40
2023/05/24 08:52:55;;;;;;;;;;;17.30;59.80;;;;;;5052070;27;87069;-44
2023/05/24 08:55:20;;;;;;;;;;;17.30;60.90;;;;;;5051908;27;87039;-43
2023/05/24 08:57:46;;;;;;;;;;;17.30;60.50;;;;;;5052858;27;88626;-40
2023/05/24 09:00:12;;;;;;;;;;;17.30;61.10;;;;;;5051255;27;87381;-44
2023/05/24 09:02:38;;;;;;;;;;;17.40;61.30;;;;;;5052512;27;88561;-42
2023/05/24 09:05:08;;;;;;;;;;;17.40;61.00;;;;;;5050632;27;87074;-40
2023/05/24 09:07:33;;;;;;;;;;;17.40;59.50;;;;;;5052019;27;87530;-41
2023/05/24 09:10:08;;;;;;;;;;;17.40;59.60;;;;;;5049774;27;89529;-44
2023/05/24 09:12:35;;;;;;;;;;;17.50;59.80;;;;;;5050892;27;86977;-41
2023/05/24 09:15:01;;;;;;;;;;;17.50;58.50;;;;;;5047527;27;87703;-43
2023/05/24 09:17:27;;;;;;;;;;;17.50;58.70;;;;;;5051540;27;88440;-42
2023/05/24 09:19:53;;;;;;;;;;;17.50;57.90;;;;;;5054562;27;87262;-42
2023/05/24 09:22:22;;;;;;;;;;;17.50;58.40;;;;;;5053038;27;87944;-45
2023/05/24 09:24:48;;;;;;;;;;;17.50;59.70;;;;;;5054876;27;87040;-42
2023/05/24 09:27:20;;;;;;;;;;;17.50;59.90;;;;;;5055401;27;87252;-44
2023/05/24 09:29:47;;;;;;;;;;;17.50;60.30;;;;;;5052177;27;89741;-42
2023/05/24 09:32:13;;;;;;;;;;;17.50;60.80;;;;;;5054325;27;87496;-42
2023/05/24 09:34:39;;;;;;;;;;;17.60;60.70;;;;;;5054629;27;88025;-42
2023/05/24 09:37:06;;;;;;;;;;;17.50;59.10;;;;;;5054079;27;89598;-42
2023/05/24 09:39:32;;;;;;;;;;;17.60;58.40;;;;;;5057689;27;87096;-42
2023/05/24 09:41:57;;;;;;;;;;;17.70;56.60;;;;;;5054779;27;88011;-44
2023/05/24 09:44:24;;;;;;;;;;;17.80;55.60;;;;;;5052971;27;87100;-43
2023/05/24 09:46:50;;;;;;;;;;;17.90;56.20;;;;;;5042703;27;87047;-40
2023/05/24 09:49:15;;;;;;;;;;;17.90;55.80;;;;;;5046379;27;89153;-51
2023/05/24 09:51:41;;;;;;;;;;;18.00;53.50;;;;;;5054441;27;86732;-41
2023/05/24 09:54:08;;;;;;;;;;;18.00;52.60;;;;;;5052945;27;88080;-46
2023/05/24 09:56:34;;;;;;;;;;;18.00;52.80;;;;;;5042456;27;88003;-42
2023/05/24 09:59:04;;;;;;;;;;;18.00;53.20;;;;;;5049899;27;88084;-41
2023/05/24 10:01:32;;;;;;;;;;;17.90;54.50;;;;;;5056160;27;91820;-41
2023/05/24 10:03:59;;;;;;;;;;;17.90;54.10;;;;;;5053438;27;87418;-42
2023/05/24 10:06:24;;;;;;;;;;;17.90;54.70;;;;;;5052872;27;88850;-41
2023/05/24 10:08:50;;;;;;;;;;;18.00;55.40;;;;;;5054837;27;89329;-41
2023/05/24 10:11:17;;;;;;;;;;;17.90;55.60;;;;;;5052864;27;87072;-41
2023/05/24 10:13:43;;;;;;;;;;;17.90;56.10;;;;;;5055883;27;87508;-41
2023/05/24 10:16:08;;;;;;;;;;;17.90;56.50;;;;;;5053208;27;87505;-42
2023/05/24 10:18:34;;;;;;;;;;;17.90;56.50;;;;;;5056274;27;86992;-42
2023/05/24 10:21:00;;;;;;;;;;;17.90;57.00;;;;;;5053169;27;88809;-42
2023/05/24 10:23:28;;;;;;;;;;;17.90;57.20;;;;;;5053374;27;89484;-41
2023/05/24 10:25:58;;;;;;;;;;;17.90;57.00;;;;;;5047784;27;88061;-41
2023/05/24 10:28:24;;;;;;;;;;;17.90;57.50;;;;;;5048328;27;88129;-41
2023/05/24 10:31:00;;;;;;;;;;;17.90;57.40;;;;;;5055759;27;86982;-41
2023/05/24 10:33:26;;;;;;;;;;;17.90;57.80;;;;;;5049236;27;87906;-41
2023/05/24 10:35:52;;;;;;;;;;;17.90;57.60;;;;;;5051577;27;88742;-43
2023/05/24 10:38:19;;;;;;;;;;;17.90;57.90;;;;;;5054253;27;87312;-41
2023/05/24 10:40:45;;;;;;;;;;;17.90;58.00;;;;;;5053375;27;87372;-41
2023/05/24 10:43:10;;;;;;;;;;;17.90;57.80;;;;;;5055099;27;88207;-42
2023/05/24 10:45:36;;;;;;;;;;;17.90;57.70;;;;;;5055204;27;87136;-41
2023/05/24 10:48:11;;;;;;;;;;;17.90;58.10;;;;;;5054868;27;88114;-42
2023/05/24 10:50:37;;;;;;;;;;;17.90;58.10;;;;;;5032054;27;87249;-42
2023/05/24 10:53:21;;;;;;;;;;;17.90;58.10;;;;;;5054283;27;87940;-41
2023/05/24 10:55:51;;;;;;;;;;;18.00;58.30;;;;;;5054856;27;88126;-41
2023/05/24 10:58:17;;;;;;;;;;;18.00;58.60;;;;;;5050418;27;87143;-41
2023/05/24 11:00:43;;;;;;;;;;;18.00;58.70;;;;;;5055084;27;87522;-41
2023/05/24 11:03:09;;;;;;;;;;;18.00;58.50;;;;;;5051260;27;89585;-42
2023/05/24 11:05:51;;;;;;;;;;;18.00;58.50;;;;;;5053910;27;87905;-41
2023/05/24 11:08:24;;;;;;;;;;;18.00;58.50;;;;;;5052864;27;87009;-42
2023/05/24 11:11:00;;;;;;;;;;;18.00;58.60;;;;;;5052870;27;87093;-42
2023/05/24 11:13:26;;;;;;;;;;;18.10;58.50;;;;;;5054031;27;87889;-42
2023/05/24 11:15:52;;;;;;;;;;;18.10;58.50;;;;;;5050764;27;88510;-41
2023/05/24 11:18:22;;;;;;;;;;;18.10;58.30;;;;;;5053694;27;87440;-42
2023/05/24 11:20:47;;;;;;;;;;;18.10;58.70;;;;;;5048016;27;87162;-41
2023/05/24 11:23:14;;;;;;;;;;;18.20;58.70;;;;;;5054060;27;88007;-41
2023/05/24 11:25:39;;;;;;;;;;;18.20;58.90;;;;;;5051984;27;87290;-42
2023/05/24 11:28:09;;;;;;;;;;;18.20;58.60;;;;;;5053936;27;87107;-41
2023/05/24 11:30:42;;;;;;;;;;;18.20;58.80;;;;;;5054898;27;88611;-41
2023/05/24 11:33:13;;;;;;;;;;;18.20;59.00;;;;;;5055112;27;87025;-41
2023/05/24 11:35:39;;;;;;;;;;;18.20;58.70;;;;;;5046764;27;88105;-41
2023/05/24 11:38:10;;;;;;;;;;;18.30;59.00;;;;;;5054490;27;88123;-41
2023/05/24 11:40:37;;;;;;;;;;;18.30;58.70;;;;;;5047753;27;89983;-41
2023/05/24 11:43:05;;;;;;;;;;;18.30;58.90;;;;;;5053894;27;89204;-41
2023/05/24 11:45:31;;;;;;;;;;;18.30;59.00;;;;;;5050920;27;87130;-41
2023/05/24 11:47:56;;;;;;;;;;;18.30;59.20;;;;;;5054649;27;87778;-41
2023/05/24 11:50:25;;;;;;;;;;;18.30;58.90;;;;;;5053748;27;87542;-41
2023/05/24 11:52:50;;;;;;;;;;;18.30;58.80;;;;;;5041012;27;88219;-42
2023/05/24 11:55:22;;;;;;;;;;;18.40;59.00;;;;;;5034258;28;87365;-42
2023/05/24 11:57:56;;;;;;;;;;;18.40;59.30;;;;;;5027280;28;86993;-41
2023/05/24 12:00:25;;;;;;;;;;;18.50;59.20;;;;;;5032621;28;87445;-42
2023/05/24 12:02:51;;;;;;;;;;;18.50;59.20;;;;;;5031355;28;90110;-41
2023/05/24 12:05:17;;;;;;;;;;;18.50;59.10;;;;;;5032160;28;87495;-42
2023/05/24 12:07:47;;;;;;;;;;;18.50;59.20;;;;;;5029678;28;88198;-41
2023/05/24 12:10:14;;;;;;;;;;;18.60;59.10;;;;;;5031735;28;87978;-42
2023/05/24 12:12:43;;;;;;;;;;;18.50;58.70;;;;;;5035423;28;87090;-41
2023/05/24 12:15:09;;;;;;;;;;;18.60;59.30;;;;;;5032006;28;89163;-42
2023/05/24 12:17:35;;;;;;;;;;;18.60;58.80;;;;;;5032544;28;87092;-42
2023/05/24 12:20:01;;;;;;;;;;;18.60;59.00;;;;;;5032361;28;87367;-42
2023/05/24 12:22:28;;;;;;;;;;;18.60;59.00;;;;;;5029675;28;88075;-41
2023/05/24 12:24:54;;;;;;;;;;;18.70;59.00;;;;;;5031453;28;87182;-41
2023/05/24 12:27:19;;;;;;;;;;;18.70;58.50;;;;;;5028682;28;90693;-41
2023/05/24 12:29:45;;;;;;;;;;;18.70;58.40;;;;;;5031528;28;89114;-41
2023/05/24 12:32:11;;;;;;;;;;;18.70;58.70;;;;;;5031100;28;87102;-42
2023/05/24 12:34:36;;;;;;;;;;;18.70;58.70;;;;;;5035774;28;88931;-41
2023/05/24 12:37:02;;;;;;;;;;;18.70;58.80;;;;;;5026454;28;87232;-42
2023/05/24 12:39:33;;;;;;;;;;;18.80;58.90;;;;;;5033476;28;88962;-42
2023/05/24 12:42:02;;;;;;;;;;;18.80;59.90;;;;;;5030419;28;88008;-42
2023/05/24 12:44:28;;;;;;;;;;;18.80;58.90;;;;;;5033136;28;86278;-42
2023/05/24 12:46:54;;;;;;;;;;;18.80;58.90;;;;;;5029987;28;87136;-41
2023/05/24 12:49:24;;;;;;;;;;;18.90;59.00;;;;;;5031263;28;89397;-42
2023/05/24 12:51:50;;;;;;;;;;;18.90;58.80;;;;;;5028179;28;88793;-41
2023/05/24 12:54:19;;;;;;;;;;;18.90;59.30;;;;;;5049684;27;90121;-42
2023/05/24 12:56:45;;;;;;;;;;;19.00;59.00;;;;;;5053282;27;89374;-41
2023/05/24 12:59:10;;;;;;;;;;;19.00;58.30;;;;;;5056094;27;87366;-42
2023/05/24 13:01:36;;;;;;;;;;;19.00;58.80;;;;;;5053486;27;88361;-41
2023/05/24 13:04:02;;;;;;;;;;;19.00;58.20;;;;;;5056869;27;87042;-42
2023/05/24 13:06:27;;;;;;;;;;;19.00;58.20;;;;;;5053380;27;87814;-42
2023/05/24 13:08:53;;;;;;;;;;;19.10;58.20;;;;;;5052014;27;88232;-42
2023/05/24 13:11:18;;;;;;;;;;;19.10;58.70;;;;;;5056986;27;88384;-42
2023/05/24 13:13:44;;;;;;;;;;;19.10;58.20;;;;;;5054093;27;87486;-41
2023/05/24 13:16:10;;;;;;;;;;;19.20;58.40;;;;;;5055257;27;88975;-41
2023/05/24 13:18:36;;;;;;;;;;;19.20;58.40;;;;;;5056532;27;87103;-42
2023/05/24 13:21:04;;;;;;;;;;;19.20;58.20;;;;;;5036725;27;89356;-41
2023/05/24 13:23:32;;;;;;;;;;;19.20;58.30;;;;;;5052344;27;87014;-42
2023/05/24 13:25:58;;;;;;;;;;;19.30;58.40;;;;;;5053951;27;87222;-41
2023/05/24 13:28:23;;;;;;;;;;;19.30;57.90;;;;;;5055285;27;87947;-42
2023/05/24 13:30:49;;;;;;;;;;;19.40;58.00;;;;;;5054140;27;87147;-41
2023/05/24 13:33:14;;;;;;;;;;;19.40;57.80;;;;;;5055982;27;87524;-42
2023/05/24 13:35:40;;;;;;;;;;;19.50;58.10;;;;;;5054830;27;88282;-42
2023/05/24 13:38:06;;;;;;;;;;;19.50;58.00;;;;;;5053134;27;87955;-42
2023/05/24 13:40:32;;;;;;;;;;;19.50;57.70;;;;;;5056444;27;88229;-42
2023/05/24 13:42:57;;;;;;;;;;;19.50;57.60;;;;;;5055411;27;87146;-42
2023/05/24 13:45:23;;;;;;;;;;;19.60;57.20;;;;;;5054130;27;87945;-42
2023/05/24 13:47:50;;;;;;;;;;;19.60;57.70;;;;;;5054832;27;89349;-41
2023/05/24 13:50:16;;;;;;;;;;;19.60;57.40;;;;;;5053009;27;87009;-42
2023/05/24 13:52:41;;;;;;;;;;;19.60;57.10;;;;;;5051850;27;87517;-41
2023/05/24 13:55:07;;;;;;;;;;;19.60;57.00;;;;;;5055955;27;87976;-42
2023/05/24 13:57:33;;;;;;;;;;;19.60;57.30;;;;;;5053590;27;86328;-42
2023/05/24 13:59:59;;;;;;;;;;;19.60;57.40;;;;;;5058474;27;88060;-41
2023/05/24 14:02:25;;;;;;;;;;;19.70;57.50;;;;;;5052520;27;88124;-42
2023/05/24 14:04:51;;;;;;;;;;;19.70;57.20;;;;;;5055941;27;87912;-42
2023/05/24 14:07:17;;;;;;;;;;;19.70;57.50;;;;;;5051606;27;89317;-42
2023/05/24 14:09:42;;;;;;;;;;;19.80;57.20;;;;;;5051589;27;87056;-42
2023/05/24 14:12:08;;;;;;;;;;;19.80;57.30;;;;;;5054923;27;86962;-42